Time;durP1;ratioP1;P1;durP2;ratioP2;P2;SDS_P1;SDS_P2;PMS_P1;PMS_P2;Temp;Humidity;BMP_temperature;BMP_pressure;BME280_temperature;BME280_humidity;BME280_pressure;Samples;Min_cycle;Max_cycle;Signal;HPM_P1;HPM_P2
2022/07/10 00:00:07;;;;;;;4.10;1.45;;;;;;;15.02;65.26;100996.28;1654722;85;20890;-83
2022/07/10 00:02:33;;;;;;;3.67;1.50;;;;;;;14.98;65.32;100998.56;1673518;85;20957;-83
2022/07/10 00:04:59;;;;;;;4.17;1.53;;;;;;;14.91;65.37;101004.39;1668855;85;21065;-83
2022/07/10 00:07:26;;;;;;;6.27;1.33;;;;;;;14.83;65.37;101002.45;1662351;85;21124;-83
2022/07/10 00:09:52;;;;;;;6.80;1.40;;;;;;;14.80;65.43;101000.78;1663468;85;21096;-83
2022/07/10 00:12:18;;;;;;;6.80;1.73;;;;;;;14.79;65.43;100999.52;1666937;85;21060;-82
2022/07/10 00:14:44;;;;;;;3.43;1.23;;;;;;;14.66;65.41;100977.31;1660014;85;21080;-82
2022/07/10 00:17:10;;;;;;;4.03;1.20;;;;;;;14.75;65.42;101001.34;1602216;86;21124;-84
2022/07/10 00:19:36;;;;;;;7.27;1.33;;;;;;;14.74;65.47;100994.88;1667794;85;21132;-83
2022/07/10 00:22:02;;;;;;;5.07;1.20;;;;;;;14.72;65.44;100987.56;1660370;85;21108;-83
2022/07/10 00:24:28;;;;;;;7.03;1.45;;;;;;;14.72;65.48;100985.81;1662302;85;21085;-83
2022/07/10 00:26:55;;;;;;;4.37;1.90;;;;;;;14.69;65.43;100985.04;1671112;85;21097;-83
2022/07/10 00:29:21;;;;;;;6.63;1.47;;;;;;;14.65;65.46;100979.51;1675482;85;21786;-83
2022/07/10 00:31:48;;;;;;;8.18;1.42;;;;;;;14.62;65.49;100989.55;1639189;85;21136;-83
2022/07/10 00:34:15;;;;;;;4.08;1.45;;;;;;;14.58;65.45;100981.42;1665230;85;21086;-84
2022/07/10 00:36:41;;;;;;;4.47;1.10;;;;;;;14.54;65.46;100983.73;1654509;85;21036;-83
2022/07/10 00:39:07;;;;;;;4.03;1.17;;;;;;;14.49;65.46;100977.34;1655076;85;21255;-84
2022/07/10 00:41:33;;;;;;;4.23;1.30;;;;;;;14.45;65.50;100973.56;1672702;85;20950;-84
2022/07/10 00:44:01;;;;;;;2.53;1.30;;;;;;;14.41;65.42;100970.59;1661555;85;21385;-84
2022/07/10 00:46:30;;;;;;;2.45;0.95;;;;;;;14.36;65.45;100969.41;1666499;84;21465;-84
2022/07/10 00:48:57;;;;;;;7.33;1.32;;;;;;;14.35;65.42;100976.81;1669346;85;21064;-83
2022/07/10 00:51:29;;;;;;;7.60;1.10;;;;;;;14.29;65.37;100969.61;1632157;85;21422;-83
2022/07/10 00:53:57;;;;;;;2.58;1.25;;;;;;;14.24;65.43;100970.58;1629668;86;21093;-83
2022/07/10 00:56:25;;;;;;;4.72;1.20;;;;;;;14.21;65.44;100968.05;1668440;85;21375;-83
2022/07/10 00:58:57;;;;;;;2.77;1.20;;;;;;;14.17;65.40;100967.73;1657074;85;20974;-83
2022/07/10 01:01:24;;;;;;;5.13;1.10;;;;;;;14.11;65.37;100969.17;1656127;85;21056;-83
2022/07/10 01:03:51;;;;;;;2.30;1.12;;;;;;;14.04;65.39;100970.22;1654636;85;24011;-83
2022/07/10 01:06:18;;;;;;;5.53;1.20;;;;;;;14.00;65.41;100973.81;1661606;85;21116;-83
2022/07/10 01:08:45;;;;;;;5.27;1.53;;;;;;;13.95;65.40;100969.63;1663423;85;21675;-83
2022/07/10 01:11:12;;;;;;;3.33;1.20;;;;;;;13.94;65.42;100974.41;1659166;85;21669;-83
2022/07/10 01:13:39;;;;;;;;;;;;;;;13.89;65.39;100972.77;1662564;85;21350;-83
2022/07/10 01:16:05;;;;;;;4.60;1.05;;;;;;;13.84;65.53;100965.53;1670338;85;20204;-83
2022/07/10 01:18:32;;;;;;;5.95;1.37;;;;;;;13.77;65.49;100967.86;1665495;85;21339;-84
2022/07/10 01:21:00;;;;;;;6.78;1.35;;;;;;;13.72;65.43;100967.56;1658499;85;21129;-84
2022/07/10 01:23:26;;;;;;;3.42;1.00;;;;;;;13.70;65.49;100961.09;1623010;85;21407;-84
2022/07/10 01:25:52;;;;;;;4.47;0.93;;;;;;;13.67;65.44;100961.61;1670256;85;20934;-84
2022/07/10 01:28:20;;;;;;;3.47;1.23;;;;;;;13.66;65.42;100962.50;1659864;85;21104;-84
2022/07/10 01:30:48;;;;;;;5.65;1.02;;;;;;;13.60;65.41;100962.20;1657387;85;21354;-84
2022/07/10 01:33:14;;;;;;;3.90;1.00;;;;;;;13.57;65.47;100957.92;1651377;85;21057;-84
2022/07/10 01:35:41;;;;;;;3.63;1.27;;;;;;;13.55;65.49;100961.45;1661096;85;21437;-84
2022/07/10 01:38:07;;;;;;;2.50;1.20;;;;;;;13.51;65.47;100951.59;1652180;85;21012;-84
2022/07/10 01:40:33;;;;;;;3.13;1.10;;;;;;;13.47;65.50;100951.70;1653516;85;21072;-84
2022/07/10 01:42:59;;;;;;;2.50;1.03;;;;;;;13.41;65.51;100947.94;1664342;85;21450;-84
2022/07/10 01:45:29;;;;;;;6.37;1.47;;;;;;;13.35;65.49;100953.27;1666201;84;21481;-84
2022/07/10 01:47:56;;;;;;;7.65;1.20;;;;;;;13.30;65.59;100947.32;1660770;85;21355;-84
2022/07/10 01:50:22;;;;;;;5.58;1.55;;;;;;;13.24;65.57;100943.11;1631217;85;21080;-84
2022/07/10 01:52:48;;;;;;;7.37;1.27;;;;;;;13.20;65.61;100941.02;1647894;85;21154;-84
2022/07/10 01:55:14;;;;;;;9.03;1.70;;;;;;;13.18;65.62;100944.09;1693955;83;21005;-84
2022/07/10 01:57:40;;;;;;;6.33;1.40;;;;;;;13.15;65.64;100945.42;1718830;83;21341;-84
2022/07/10 02:00:09;;;;;;;10.13;1.80;;;;;;;13.11;65.65;100947.67;1718466;82;21339;-84
2022/07/10 02:02:35;;;;;;;7.00;1.40;;;;;;;13.13;65.67;100950.24;1653203;85;21137;-84
2022/07/10 02:05:01;;;;;;;13.67;1.83;;;;;;;13.13;65.72;100945.05;1661453;85;21125;-84
2022/07/10 02:07:28;;;;;;;4.33;1.20;;;;;;;13.10;65.64;100948.56;1712797;83;21100;-84
2022/07/10 02:09:54;;;;;;;6.77;1.70;;;;;;;12.99;65.89;100949.27;1711957;83;21350;-84
2022/07/10 02:12:20;;;;;;;10.17;1.83;;;;;;;12.99;65.89;100949.27;1687280;83;21343;-83
2022/07/10 02:14:46;;;;;;;5.72;1.27;;;;;;;12.98;65.76;100942.80;1719495;83;21748;-84
2022/07/10 02:17:12;;;;;;;3.37;1.00;;;;;;;12.97;65.78;100939.80;1716694;83;21690;-84
2022/07/10 02:19:38;;;;;;;6.78;1.25;;;;;;;12.98;65.85;100939.77;1683840;83;474295;-84
2022/07/10 02:22:04;;;;;;;6.13;1.10;;;;;;;12.98;65.85;100941.06;1689950;83;21049;-83
2022/07/10 02:24:31;;;;;;;8.03;1.82;;;;;;;13.02;65.85;100949.61;1688164;83;21084;-84
2022/07/10 02:26:57;;;;;;;4.10;0.90;;;;;;;13.00;65.87;100942.33;1707833;83;21418;-83
2022/07/10 02:29:25;;;;;;;4.77;1.20;;;;;;;13.01;65.92;100940.11;1693503;83;20922;-83
2022/07/10 02:31:52;;;;;;;8.15;1.27;;;;;;;13.00;65.96;100942.33;1699571;83;21581;-83
2022/07/10 02:34:19;;;;;;;4.83;1.02;;;;;;;12.98;65.93;100938.47;1710762;83;21291;-83
2022/07/10 02:36:45;;;;;;;11.73;1.60;;;;;;;13.00;65.99;100939.73;1704188;83;20988;-83
2022/07/10 02:39:12;;;;;;;3.70;0.95;;;;;;;13.02;66.03;100936.19;1698940;83;21327;-83
2022/07/10 02:41:38;;;;;;;4.20;1.30;;;;;;;13.03;66.03;100935.30;1706993;83;21417;-84
2022/07/10 02:44:04;;;;;;;3.30;1.20;;;;;;;13.04;66.04;100934.86;1703044;83;22022;-83
2022/07/10 02:46:30;;;;;;;6.07;1.10;;;;;;;13.07;66.07;100932.20;1708790;82;21179;-84
2022/07/10 02:48:56;;;;;;;3.00;1.00;;;;;;;13.08;66.10;100932.16;1729176;82;21409;-84
2022/07/10 02:51:25;;;;;;;3.15;0.85;;;;;;;13.13;66.12;100930.77;1727496;82;20889;-84
2022/07/10 02:53:51;;;;;;;5.27;1.20;;;;;;;13.15;66.11;100923.80;1722674;82;20910;-83
2022/07/10 02:56:17;;;;;;;6.47;1.00;;;;;;;13.18;66.12;100928.96;1735159;82;20964;-83
2022/07/10 02:58:43;;;;;;;6.83;1.33;;;;;;;13.17;66.13;100922.91;1729443;82;20897;-83
2022/07/10 03:01:09;;;;;;;5.87;1.17;;;;;;;13.16;66.16;100922.50;1716305;82;20995;-83
2022/07/10 03:03:35;;;;;;;5.50;1.17;;;;;;;13.17;66.20;100924.66;1735147;82;20866;-83
2022/07/10 03:06:01;;;;;;;4.33;1.13;;;;;;;13.18;66.17;100923.77;1731972;82;21035;-83
2022/07/10 03:08:27;;;;;;;2.97;1.37;;;;;;;13.17;66.24;100923.36;1721617;82;20898;-84
2022/07/10 03:10:53;;;;;;;11.27;1.53;;;;;;;13.17;66.25;100920.77;1731055;82;21040;-84
2022/07/10 03:13:19;;;;;;;3.10;0.95;;;;;;;13.16;66.30;100927.70;1731799;82;21365;-84
2022/07/10 03:15:45;;;;;;;6.60;1.10;;;;;;;13.19;66.35;100926.78;1724303;82;20921;-84
2022/07/10 03:18:11;;;;;;;5.27;0.90;;;;;;;13.18;66.35;100928.52;1720749;82;20886;-83
2022/07/10 03:20:37;;;;;;;10.25;1.00;;;;;;;13.16;66.34;100925.10;1716308;82;26513;-83
2022/07/10 03:23:03;;;;;;;8.10;1.07;;;;;;;13.14;66.40;100928.14;1706135;82;20981;-83
2022/07/10 03:25:29;;;;;;;16.17;1.50;;;;;;;13.12;66.44;100933.81;1707025;82;21725;-83
2022/07/10 03:28:08;;;;;;;7.25;1.10;;;;;;;13.13;66.47;100936.81;1711538;82;21103;-83
2022/07/10 03:30:34;;;;;;;7.77;1.60;;;;;;;13.14;66.51;100932.48;1719109;82;21072;-83
2022/07/10 03:33:00;;;;;;;2.60;1.43;;;;;;;13.16;66.51;100926.84;1720164;82;20996;-83
2022/07/10 03:35:26;;;;;;;12.13;1.00;;;;;;;13.16;66.53;100924.25;1721929;82;21096;-83
2022/07/10 03:37:52;;;;;;;6.27;0.93;;;;;;;13.16;66.56;100926.40;1719129;82;21029;-83
2022/07/10 03:40:20;;;;;;;7.10;1.70;;;;;;;13.19;66.62;100925.48;1733107;82;21044;-84
2022/07/10 03:42:46;;;;;;;6.10;1.02;;;;;;;13.19;66.61;100918.98;1731338;82;21738;-84
2022/07/10 03:45:12;;;;;;;6.57;1.33;;;;;;;13.19;66.62;100917.24;1730511;82;20917;-84
2022/07/10 03:47:38;;;;;;;9.23;1.20;;;;;;;13.22;66.66;100922.38;1680306;84;20941;-84
2022/07/10 03:50:05;;;;;;;7.07;1.37;;;;;;;13.26;66.72;100919.27;1717463;83;21032;-84
2022/07/10 03:52:31;;;;;;;6.30;1.42;;;;;;;13.28;66.69;100919.23;1702875;82;21357;-84
2022/07/10 03:54:57;;;;;;;6.53;1.23;;;;;;;13.29;66.72;100917.89;1701672;83;21116;-84
2022/07/10 04:00:11;;;;;;;9.75;1.30;;;;;;;13.34;66.83;100921.25;1701041;83;21508;-84
2022/07/10 04:02:37;;;;;;;6.20;0.98;;;;;;;13.32;66.76;100924.77;1711141;83;21023;-84
2022/07/10 04:05:08;;;;;;;7.50;1.23;;;;;;;13.30;66.85;100921.35;1708969;83;21008;-84
2022/07/10 04:07:35;;;;;;;8.78;1.15;;;;;;;13.29;66.91;100920.94;1703162;83;21074;-84
2022/07/10 04:10:02;;;;;;;6.22;1.22;;;;;;;13.29;66.95;100927.43;1705731;83;21474;-84
2022/07/10 04:12:28;;;;;;;3.85;0.90;;;;;;;13.33;67.02;100924.73;1711661;83;20914;-84
2022/07/10 04:14:56;;;;;;;6.27;1.10;;;;;;;13.37;67.05;100919.88;1636246;85;20974;-84
2022/07/10 04:17:22;;;;;;;7.33;1.42;;;;;;;13.44;67.11;100919.30;1671257;85;20942;-84
2022/07/10 04:19:48;;;;;;;4.55;1.02;;;;;;;13.53;67.11;100920.36;1641839;86;20991;-84
2022/07/10 04:22:14;;;;;;;9.60;1.40;;;;;;;13.59;67.12;100909.82;1702147;83;20922;-84
2022/07/10 04:24:40;;;;;;;4.10;0.60;;;;;;;13.67;67.13;100914.39;1703444;83;21096;-84
2022/07/10 04:27:07;;;;;;;4.83;1.40;;;;;;;13.69;67.12;100920.85;1705646;83;21064;-84
2022/07/10 04:29:33;;;;;;;6.17;1.00;;;;;;;13.71;67.22;100906.08;1652297;85;21567;-84
2022/07/10 04:31:59;;;;;;;7.37;1.10;;;;;;;13.78;67.18;100909.80;1654393;85;21290;-84
2022/07/10 04:34:28;;;;;;;6.45;1.12;;;;;;;13.79;67.12;100911.50;1648391;85;21089;-84
2022/07/10 04:36:53;;;;;;;3.47;1.20;;;;;;;13.80;67.17;100904.11;1665845;85;21027;-84
2022/07/10 04:39:19;;;;;;;6.67;1.37;;;;;;;13.85;67.15;100911.80;1662293;84;21002;-84
2022/07/10 04:41:47;;;;;;;5.08;1.65;;;;;;;13.83;67.15;100900.14;1665165;85;21125;-84
2022/07/10 04:44:14;;;;;;;4.13;0.93;;;;;;;13.87;67.20;100902.22;1631607;85;21127;-84
2022/07/10 04:46:40;;;;;;;4.90;1.00;;;;;;;13.88;67.15;100904.78;1664638;84;20981;-84
2022/07/10 04:49:06;;;;;;;4.37;1.00;;;;;;;13.88;67.18;100902.17;1657183;85;21065;-84
2022/07/10 04:51:32;;;;;;;6.33;1.00;;;;;;;13.91;67.18;100899.95;1713176;83;21069;-84
2022/07/10 04:53:58;;;;;;;3.70;0.87;;;;;;;13.89;67.27;100886.13;1703123;83;28232;-84
2022/07/10 04:56:25;;;;;;;5.50;1.02;;;;;;;14.04;67.29;100899.16;1713431;83;21044;-84
2022/07/10 04:58:51;;;;;;;6.47;1.00;;;;;;;14.16;67.24;100900.14;1696242;83;21076;-84
2022/07/10 05:01:18;;;;;;;5.17;1.10;;;;;;;14.24;67.29;100901.66;1705445;82;21356;-84
2022/07/10 05:03:45;;;;;;;3.37;1.05;;;;;;;14.34;67.29;100902.27;1698830;83;21021;-84
2022/07/10 05:06:11;;;;;;;10.20;1.10;;;;;;;14.46;67.26;100900.66;1660402;85;21092;-84
2022/07/10 05:08:37;;;;;;;8.23;1.43;;;;;;;14.55;67.23;100903.47;1620837;85;21006;-84
2022/07/10 05:11:03;;;;;;;5.97;0.90;;;;;;;14.62;67.24;100909.32;1650336;85;21144;-84
2022/07/10 05:13:29;;;;;;;6.12;1.60;;;;;;;14.63;67.10;100909.28;1652198;85;21102;-84
2022/07/10 05:15:55;;;;;;;4.17;0.95;;;;;;;14.66;67.15;100909.64;1655780;85;21097;-84
2022/07/10 05:18:21;;;;;;;7.43;0.83;;;;;;;14.70;67.14;100914.72;1668086;85;20938;-84
2022/07/10 05:20:49;;;;;;;10.50;1.27;;;;;;;14.73;67.15;100915.08;1665052;85;20997;-84
2022/07/10 05:23:18;;;;;;;4.10;0.85;;;;;;;14.80;67.20;100914.02;1654963;85;21053;-84
2022/07/10 05:25:44;;;;;;;5.60;0.97;;;;;;;14.90;67.18;100906.34;1670644;85;21056;-84
2022/07/10 05:28:10;;;;;;;6.67;1.20;;;;;;;15.03;67.24;100904.23;1665119;85;21019;-84
2022/07/10 05:30:36;;;;;;;4.37;0.98;;;;;;;15.24;67.22;100907.47;1644056;85;21009;-84
2022/07/10 05:33:02;;;;;;;6.30;1.13;;;;;;;15.45;67.22;100911.17;1665679;85;21073;-84
2022/07/10 05:35:28;;;;;;;6.57;1.17;;;;;;;15.64;67.14;100899.27;1663626;85;21511;-84
2022/07/10 05:37:55;;;;;;;2.77;0.93;;;;;;;15.74;67.03;100895.91;1652456;85;21125;-84
2022/07/10 05:40:21;;;;;;;3.77;0.65;;;;;;;15.84;66.96;100894.25;1660869;85;21140;-84
2022/07/10 05:42:47;;;;;;;4.45;0.95;;;;;;;15.94;66.86;100891.34;1667893;85;21057;-84
2022/07/10 05:45:13;;;;;;;4.42;0.95;;;;;;;15.97;66.79;100891.23;1647188;85;21152;-83
2022/07/10 05:47:39;;;;;;;7.77;1.00;;;;;;;16.02;66.79;100888.88;1668188;85;22230;-84
2022/07/10 05:50:06;;;;;;;7.50;1.40;;;;;;;16.07;66.86;100886.96;1670222;85;315960;-84
2022/07/10 05:52:33;;;;;;;3.25;0.98;;;;;;;16.36;66.81;100891.59;1669804;85;21005;-84
2022/07/10 05:54:59;;;;;;;;;;;;;;;16.43;66.63;100889.16;1666676;85;21163;-84
2022/07/10 05:57:25;;;;;;;4.10;1.03;;;;;;;16.46;66.13;100893.83;1658301;85;20327;-84
2022/07/10 06:00:00;;;;;;;5.45;0.85;;;;;;;16.42;66.45;100891.37;1658435;85;21968;-84
2022/07/10 06:02:27;;;;;;;2.98;0.80;;;;;;;16.40;66.55;100890.58;1666039;84;21081;-84
2022/07/10 06:04:53;;;;;;;2.67;0.80;;;;;;;16.36;66.36;100889.83;1666304;85;21148;-84
2022/07/10 06:07:19;;;;;;;3.43;0.83;;;;;;;16.27;66.38;100895.83;1675115;85;21065;-84
2022/07/10 06:09:45;;;;;;;5.57;1.00;;;;;;;16.22;66.34;100891.62;1664998;85;21548;-84
2022/07/10 06:12:11;;;;;;;6.30;0.70;;;;;;;16.18;66.40;100899.61;1663734;85;21047;-84
2022/07/10 06:14:39;;;;;;;6.28;1.02;;;;;;;16.13;66.22;100901.52;1660268;85;21493;-84
2022/07/10 06:17:05;;;;;;;3.30;1.03;;;;;;;16.02;66.31;100896.70;1669233;85;21052;-84
2022/07/10 06:19:31;;;;;;;3.67;1.00;;;;;;;16.01;66.41;100900.21;1673590;85;21021;-84
2022/07/10 06:24:45;;;;;;;4.25;1.10;;;;;;;16.05;66.25;100897.05;1667246;85;21874;-84
2022/07/10 06:27:11;;;;;;;7.00;0.90;;;;;;;16.09;66.22;100906.47;1659325;85;20969;-84
2022/07/10 06:29:38;;;;;;;2.93;1.00;;;;;;;16.11;66.19;100900.30;1672919;85;21017;-83
2022/07/10 06:32:05;;;;;;;2.10;0.85;;;;;;;16.19;66.26;100902.62;1665377;85;26765;-83
2022/07/10 06:34:32;;;;;;;7.25;1.47;;;;;;;16.31;66.14;100890.91;1670843;85;21580;-83
2022/07/10 06:36:58;;;;;;;11.10;1.10;;;;;;;16.43;66.15;100894.38;1663990;85;21076;-84
2022/07/10 06:39:24;;;;;;;4.97;1.13;;;;;;;16.50;65.65;100891.95;1658119;85;20993;-83
2022/07/10 06:41:50;;;;;;;4.72;1.15;;;;;;;16.49;65.77;100888.95;1668440;85;21556;-84
2022/07/10 06:44:16;;;;;;;3.40;0.70;;;;;;;16.55;65.81;100891.34;1674667;85;21705;-84
2022/07/10 06:47:55;;;;;;;2.80;0.90;;;;;;;16.60;65.75;100889.86;1673792;85;21001;-83
2022/07/10 06:49:11;;;;;;;7.03;1.22;;;;;;;16.66;65.80;100894.41;1665560;85;21782;-84
2022/07/10 06:51:38;;;;;;;5.90;0.88;;;;;;;16.74;65.68;100898.90;1667069;85;21538;-84
2022/07/10 06:54:05;;;;;;;3.50;0.72;;;;;;;16.80;65.69;100889.98;1674083;85;21505;-83
2022/07/10 06:56:31;;;;;;;6.37;1.00;;;;;;;16.85;65.60;100895.44;1674288;85;21077;-84
2022/07/10 06:58:57;;;;;;;6.77;1.10;;;;;;;16.87;65.52;100893.63;1669366;84;20986;-84
2022/07/10 07:01:23;;;;;;;5.13;1.00;;;;;;;16.92;65.43;100897.37;1657594;85;21697;-84
2022/07/10 07:03:49;;;;;;;3.73;0.87;;;;;;;16.92;65.35;100903.05;1651431;85;20922;-84
2022/07/10 07:06:15;;;;;;;4.83;0.80;;;;;;;16.95;65.33;100898.56;1671151;85;21690;-84
2022/07/10 07:08:42;;;;;;;6.40;0.97;;;;;;;17.01;65.10;100898.33;1673619;85;21048;-84
2022/07/10 07:11:09;;;;;;;5.50;0.95;;;;;;;17.07;65.23;100909.85;1672946;85;21117;-84
2022/07/10 07:13:35;;;;;;;3.90;0.80;;;;;;;17.17;65.06;100907.70;1644297;85;21136;-83
2022/07/10 07:16:08;;;;;;;2.27;0.80;;;;;;;17.20;64.95;100904.52;1672927;85;21575;-84
2022/07/10 07:18:32;;;;;;;4.83;0.90;;;;;;;17.21;64.29;100904.92;1667592;85;21656;-84
2022/07/10 07:23:45;;;;;;;4.10;1.05;;;;;;;17.16;64.16;100909.47;1675631;85;28329;-84
2022/07/10 07:26:11;;;;;;;4.60;1.00;;;;;;;17.10;64.37;100907.13;1670944;85;22280;-84
2022/07/10 07:28:37;;;;;;;3.30;1.00;;;;;;;17.08;64.46;100911.55;1668355;85;22242;-84
2022/07/10 07:31:04;;;;;;;6.70;1.03;;;;;;;17.14;64.31;100911.33;1671644;85;22681;-84
2022/07/10 07:33:30;;;;;;;4.45;1.55;;;;;;;17.14;64.34;100915.24;1673575;85;22228;-84
2022/07/10 07:35:56;;;;;;;5.67;0.83;;;;;;;17.17;64.24;100903.33;1674907;85;21581;-84
2022/07/10 07:38:24;;;;;;;1.92;0.70;;;;;;;17.19;64.12;100911.97;1671983;85;21706;-84
2022/07/10 07:40:50;;;;;;;2.43;0.70;;;;;;;17.24;64.08;100912.24;1673318;85;22236;-84
2022/07/10 07:43:17;;;;;;;3.08;0.90;;;;;;;17.29;63.75;100903.31;1668135;85;21108;-84
2022/07/10 07:45:43;;;;;;;11.33;1.37;;;;;;;17.28;63.75;100911.22;1673619;85;21092;-84
2022/07/10 07:48:09;;;;;;;6.47;0.80;;;;;;;17.39;63.82;100914.27;1648006;85;20986;-85
2022/07/10 07:50:36;;;;;;;4.07;0.90;;;;;;;17.53;63.63;100910.66;1644351;85;21972;-87
2022/07/10 07:53:04;;;;;;;4.67;0.68;;;;;;;17.64;63.46;100919.38;1658904;85;22259;-86
2022/07/10 07:55:32;;;;;;;3.80;1.32;;;;;;;17.65;63.29;100918.46;1668720;85;20926;-83
2022/07/10 07:57:59;;;;;;;2.77;0.80;;;;;;;17.66;63.31;100918.44;1665359;85;21471;-85
2022/07/10 08:00:28;;;;;;;2.75;1.00;;;;;;;17.68;63.38;100919.64;1640796;85;21412;-86
2022/07/10 08:02:57;;;;;;;2.27;0.80;;;;;;;17.73;63.33;100917.23;1628037;87;21518;-86
2022/07/10 08:05:24;;;;;;;3.37;0.55;;;;;;;17.90;63.43;100927.02;1663680;85;21414;-86
2022/07/10 08:08:07;;;;;;;;;;;;;;;17.99;63.29;100922.72;1666737;85;21466;-86
2022/07/10 08:10:29;;;;;;;2.52;0.72;;;;;;;18.05;62.59;100925.53;1654357;85;20179;-86
2022/07/10 08:12:55;;;;;;;6.78;1.20;;;;;;;18.22;63.03;100919.09;1669381;85;20942;-86
2022/07/10 08:15:22;;;;;;;4.15;1.17;;;;;;;18.23;61.99;100916.88;1665484;84;21649;-86
2022/07/10 08:17:55;;;;;;;5.70;0.93;;;;;;;18.17;62.70;100921.09;1658172;85;21851;-86
2022/07/10 08:20:22;;;;;;;7.05;1.60;;;;;;;18.20;62.80;100916.55;1666590;84;20950;-86
2022/07/10 08:22:52;;;;;;;5.85;1.15;;;;;;;18.29;62.69;100925.77;1654819;85;21418;-86
2022/07/10 08:25:19;;;;;;;3.12;0.95;;;;;;;18.25;62.37;100917.66;1668754;85;21589;-86
2022/07/10 08:27:45;;;;;;;2.47;1.05;;;;;;;18.17;62.42;100921.95;1660182;85;21839;-86
2022/07/10 08:30:17;;;;;;;2.83;0.80;;;;;;;18.13;62.40;100921.68;1662191;85;21347;-86
2022/07/10 08:32:43;;;;;;;2.12;0.70;;;;;;;18.09;62.27;100922.72;1658019;85;21829;-86
2022/07/10 08:35:10;;;;;;;4.80;1.20;;;;;;;18.03;62.16;100925.59;1665209;84;21090;-86
2022/07/10 08:37:49;;;;;;;2.77;0.90;;;;;;;18.02;61.96;100924.35;1660600;85;20942;-86
2022/07/10 08:40:18;;;;;;;4.33;1.00;;;;;;;18.04;61.27;100929.06;1654904;85;21304;-86
2022/07/10 08:42:45;;;;;;;4.60;1.10;;;;;;;18.08;61.90;100918.86;1631360;86;21518;-86
2022/07/10 08:45:12;;;;;;;3.27;1.10;;;;;;;18.17;61.80;100927.17;1715554;83;20882;-86
2022/07/10 08:47:41;;;;;;;8.50;1.37;;;;;;;18.24;61.85;100917.27;1701942;83;21501;-86
2022/07/10 08:50:24;;;;;;;3.92;0.82;;;;;;;18.30;61.68;100917.00;1701012;83;21381;-87
2022/07/10 08:53:09;;;;;;;4.05;1.05;;;;;;;18.37;61.67;100918.44;1712816;83;20906;-84
2022/07/10 08:55:37;;;;;;;4.87;1.77;;;;;;;18.38;61.17;100914.91;1706478;83;20890;-84
2022/07/10 08:58:07;;;;;;;5.03;1.17;;;;;;;18.57;61.56;100909.72;1702769;83;20953;-84
2022/07/10 09:00:33;;;;;;;4.03;1.25;;;;;;;18.76;61.09;100914.53;1700509;83;21358;-84
2022/07/10 09:02:59;;;;;;;4.33;1.10;;;;;;;18.80;60.75;100906.07;1709046;83;21466;-84
2022/07/10 09:05:26;;;;;;;7.20;1.30;;;;;;;18.83;60.46;100913.80;1721373;83;20958;-84
2022/07/10 09:07:53;;;;;;;5.83;0.98;;;;;;;18.80;60.34;100906.07;1719286;83;20946;-84
2022/07/10 09:10:25;;;;;;;3.15;1.10;;;;;;;18.75;59.79;100908.90;1699174;83;20886;-84
2022/07/10 09:13:01;;;;;;;3.27;1.35;;;;;;;18.70;59.94;100900.89;1710303;83;20894;-84
2022/07/10 09:15:32;;;;;;;3.67;1.27;;;;;;;18.70;60.23;100903.05;1711169;83;20902;-84
2022/07/10 09:18:07;;;;;;;2.87;0.90;;;;;;;18.77;60.18;100902.28;1709820;82;20945;-84
2022/07/10 09:20:38;;;;;;;5.85;1.15;;;;;;;18.78;59.81;100900.91;1709389;81;21284;-84
2022/07/10 09:23:25;;;;;;;4.95;1.30;;;;;;;18.82;59.76;100906.39;1681412;83;20954;-84
2022/07/10 09:25:53;;;;;;;4.20;1.10;;;;;;;18.88;59.83;100913.59;1700382;82;20906;-84
2022/07/10 09:28:21;;;;;;;4.37;1.00;;;;;;;18.95;59.59;100902.75;1701174;83;20957;-84
2022/07/10 09:30:49;;;;;;;4.20;1.10;;;;;;;18.99;59.55;100904.31;1677822;83;20978;-84
2022/07/10 09:33:29;;;;;;;4.45;1.07;;;;;;;19.00;59.42;100903.39;1715867;82;20882;-84
2022/07/10 09:36:08;;;;;;;5.17;1.15;;;;;;;19.03;59.38;100908.50;1709080;82;21481;-84
2022/07/10 09:38:49;;;;;;;3.10;1.10;;;;;;;19.01;59.25;100903.78;1705271;83;20918;-86
2022/07/10 09:41:30;;;;;;;5.40;1.20;;;;;;;19.01;59.11;100903.78;1705848;82;21494;-84
2022/07/10 09:44:11;;;;;;;4.65;1.17;;;;;;;18.96;58.90;100899.22;1706188;83;20882;-82
2022/07/10 09:46:37;;;;;;;3.47;1.10;;;;;;;18.96;58.88;100899.22;1708744;83;20925;-82
2022/07/10 09:49:27;;;;;;;5.65;1.10;;;;;;;18.96;58.76;100900.98;1685130;83;20982;-82
2022/07/10 09:51:53;;;;;;;6.58;1.32;;;;;;;19.05;58.87;100893.55;1701803;83;20902;-82
2022/07/10 09:54:20;;;;;;;3.98;1.00;;;;;;;19.21;58.88;100898.08;1681938;83;20902;-82
2022/07/10 09:56:51;;;;;;;5.55;1.30;;;;;;;19.34;58.65;100895.23;1709301;83;23825;-82
2022/07/10 09:59:19;;;;;;;4.90;1.00;;;;;;;19.42;58.69;100900.96;1712660;83;20859;-82
2022/07/10 10:01:52;;;;;;;4.65;1.30;;;;;;;19.40;58.22;100902.80;1707969;83;20933;-82
2022/07/10 10:04:23;;;;;;;4.08;1.40;;;;;;;19.25;58.21;100903.53;1714244;83;20896;-80
2022/07/10 10:07:00;;;;;;;3.35;1.10;;;;;;;19.21;58.35;100914.66;1715389;82;20902;-80
2022/07/10 10:09:31;;;;;;;;;;;;;;;19.23;58.33;100909.34;1686482;83;20971;-80
2022/07/10 10:12:02;;;;;;;4.05;1.20;;;;;;;19.24;57.94;100909.70;1714360;83;20141;-80
2022/07/10 10:14:29;;;;;;;6.03;1.42;;;;;;;19.28;58.30;100908.63;1708901;83;21124;-80
2022/07/10 10:16:57;;;;;;;6.12;1.37;;;;;;;19.34;58.24;100909.19;1709061;83;25368;-80
2022/07/10 10:22:13;;;;;;;8.58;1.40;;;;;;;19.39;58.14;100905.89;1702499;83;20950;-80
2022/07/10 10:24:41;;;;;;;4.65;1.40;;;;;;;19.45;57.95;100904.28;1716495;83;21053;-80
2022/07/10 10:27:08;;;;;;;4.92;1.30;;;;;;;19.51;58.03;100905.80;1693158;83;21065;-80
2022/07/10 10:29:36;;;;;;;;;;;;;;;19.58;57.98;100891.92;1717755;83;21041;-80
2022/07/10 10:32:03;;;;;;;7.00;1.37;;;;;;;19.70;57.60;100894.80;1699746;83;20183;-80
2022/07/10 10:34:48;;;;;;;5.67;1.25;;;;;;;19.79;57.65;100896.09;1695732;82;21116;-80
2022/07/10 10:37:44;;;;;;;6.12;1.50;;;;;;;19.89;57.69;100883.36;1667825;85;20901;-80
2022/07/10 10:40:13;;;;;;;6.37;1.40;;;;;;;20.07;57.60;100883.28;1712304;83;20965;-80
2022/07/10 10:42:44;;;;;;;3.62;1.10;;;;;;;20.15;57.31;100893.39;1701700;83;21503;-80
2022/07/10 10:45:37;;;;;;;6.15;1.47;;;;;;;20.08;57.27;100885.44;1696731;83;21116;-80
2022/07/10 10:48:10;;;;;;;4.72;1.50;;;;;;;19.97;57.04;100887.76;1670142;84;21124;-80
2022/07/10 10:50:48;;;;;;;3.08;1.25;;;;;;;19.82;56.75;100896.78;1692479;84;21089;-80
2022/07/10 10:53:28;;;;;;;6.83;1.10;;;;;;;19.67;56.80;100898.03;1692877;84;21257;-80
2022/07/10 10:56:07;;;;;;;4.65;1.22;;;;;;;19.55;56.84;100897.31;1689205;84;21080;-80
2022/07/10 10:58:46;;;;;;;4.95;1.40;;;;;;;19.49;56.72;100904.53;1690930;84;21075;-80
2022/07/10 11:01:26;;;;;;;5.75;1.60;;;;;;;19.38;56.65;100898.95;1698628;84;21145;-80
2022/07/10 11:04:17;;;;;;;5.53;1.42;;;;;;;19.37;56.46;100891.16;1685142;84;21065;-80
2022/07/10 11:06:52;;;;;;;4.83;1.12;;;;;;;19.43;56.58;100888.23;1642408;87;21212;-80
2022/07/10 11:09:32;;;;;;;7.20;1.50;;;;;;;19.58;56.47;100880.12;1638630;86;21096;-80
2022/07/10 11:12:10;;;;;;;5.53;1.35;;;;;;;19.72;56.29;100875.04;1671955;85;21092;-80
2022/07/10 11:14:43;;;;;;;4.33;1.10;;;;;;;19.85;56.13;100885.28;1672646;85;21465;-80
2022/07/10 11:17:09;;;;;;;7.70;1.37;;;;;;;19.96;55.92;100883.44;1672421;85;21106;-80
2022/07/10 11:19:36;;;;;;;5.07;2.00;;;;;;;20.02;55.82;100892.31;1659982;85;21141;-80
2022/07/10 11:22:44;;;;;;;3.60;1.17;;;;;;;20.02;55.81;100886.59;1656924;85;21137;-80
2022/07/10 11:25:38;;;;;;;5.92;1.27;;;;;;;20.04;55.68;100883.44;1671578;85;21530;-80
2022/07/10 11:28:09;;;;;;;3.77;0.90;;;;;;;19.99;55.19;100885.44;1679137;84;21482;-80
2022/07/10 11:30:53;;;;;;;5.37;1.13;;;;;;;20.05;55.07;100879.03;1660764;85;20953;-80
2022/07/10 11:33:21;;;;;;;4.78;1.32;;;;;;;20.10;55.09;100873.94;1667346;85;20933;-80
2022/07/10 11:35:52;;;;;;;4.92;1.10;;;;;;;20.16;55.22;100875.39;1669860;85;20969;-80
2022/07/10 11:38:23;;;;;;;7.15;1.50;;;;;;;20.32;55.01;100874.11;1678188;85;21009;-80
2022/07/10 11:40:50;;;;;;;3.17;1.80;;;;;;;20.46;54.96;100872.95;1678543;84;20909;-80
2022/07/10 11:43:22;;;;;;;5.08;1.60;;;;;;;20.57;54.83;100873.70;1657893;85;21009;-80